createdAt,value
2023-01-09T00:02:04.421Z,98616.06
2023-01-09T00:04:31.228Z,98624.78
2023-01-09T00:06:58.043Z,98620.03
2023-01-09T00:09:25.049Z,98615.22
2023-01-09T00:11:52.522Z,98609.25
2023-01-09T00:14:19.592Z,98615.22
2023-01-09T00:16:46.872Z,98616.00
2023-01-09T00:19:13.605Z,98616.41
2023-01-09T00:21:40.763Z,98618.38
2023-01-09T00:24:08.482Z,98621.13
2023-01-09T00:26:35.783Z,98623.13
2023-01-09T00:29:03.572Z,98624.72
2023-01-09T00:31:30.185Z,98618.75
2023-01-09T00:34:06.511Z,98619.56
2023-01-09T00:36:33.483Z,98618.75
2023-01-09T00:39:00.235Z,98621.88
2023-01-09T00:41:46.190Z,98622.31
2023-01-09T00:44:20.390Z,98617.91
2023-01-09T00:46:51.609Z,98621.41
2023-01-09T00:49:18.834Z,98630.53
2023-01-09T00:51:45.803Z,98628.94
2023-01-09T00:54:15.577Z,98632.53
2023-01-09T00:56:42.474Z,98633.41
2023-01-09T00:59:09.715Z,98634.50
2023-01-09T01:01:36.589Z,98634.56
2023-01-09T01:04:25.982Z,98646.16
2023-01-09T01:07:11.125Z,98643.66
2023-01-09T01:09:38.048Z,98639.63
2023-01-09T01:12:07.178Z,98635.66
2023-01-09T01:14:38.560Z,98639.19
2023-01-09T01:17:06.849Z,98654.34
2023-01-09T01:19:35.089Z,98649.94
2023-01-09T01:22:02.186Z,98647.94
2023-01-09T01:24:28.920Z,98648.34
2023-01-09T01:26:55.583Z,98647.47
2023-01-09T01:29:22.408Z,98649.06
2023-01-09T01:31:49.101Z,98649.53
2023-01-09T01:34:15.760Z,98649.88
2023-01-09T01:36:42.382Z,98662.56
2023-01-09T01:39:09.025Z,98663.75
2023-01-09T01:41:36.854Z,98664.13
2023-01-09T01:44:27.785Z,98669.69
2023-01-09T01:46:56.662Z,98663.38
2023-01-09T01:49:23.477Z,98665.66
2023-01-09T01:51:54.172Z,98674.28
2023-01-09T01:54:26.076Z,98674.72
2023-01-09T01:56:57.261Z,98675.19
2023-01-09T01:59:29.150Z,98675.50
2023-01-09T02:01:59.783Z,98679.06
2023-01-09T02:04:27.577Z,98680.25
2023-01-09T02:06:56.385Z,98677.41
2023-01-09T02:09:25.302Z,98687.78
2023-01-09T02:11:56.467Z,98686.97
2023-01-09T02:14:27.815Z,98704.00
2023-01-09T02:17:30.189Z,98694.16
2023-01-09T02:20:02.872Z,98698.00
2023-01-09T02:22:53.843Z,98698.00
2023-01-09T02:25:20.435Z,98688.53
2023-01-09T02:27:55.976Z,98684.50
2023-01-09T02:30:34.049Z,98682.94
2023-01-09T02:33:53.103Z,98686.91
2023-01-09T02:36:29.994Z,98679.41
2023-01-09T02:39:14.537Z,98687.69
2023-01-09T02:42:12.083Z,98685.47
2023-01-09T02:44:38.812Z,98679.41
2023-01-09T02:47:08.100Z,98685.38
2023-01-09T02:49:38.434Z,98691.97
2023-01-09T02:52:14.497Z,98689.13
2023-01-09T02:54:43.981Z,98681.97
2023-01-09T02:57:34.763Z,98677.13
2023-01-09T03:00:30.856Z,98671.69
2023-01-09T03:03:09.416Z,98672.91
2023-01-09T03:05:39.738Z,98659.03
2023-01-09T03:08:16.913Z,98667.53
2023-01-09T03:10:54.585Z,98672.22
2023-01-09T03:13:24.175Z,98673.91
2023-01-09T03:15:54.071Z,98680.22
2023-01-09T03:18:24.736Z,98681.91
2023-01-09T03:20:52.159Z,98682.25
2023-01-09T03:23:18.836Z,98676.22
2023-01-09T03:25:45.570Z,98673.91
2023-01-09T03:28:25.919Z,98690.53
2023-01-09T03:30:52.510Z,98687.28
2023-01-09T03:33:19.615Z,98682.66
2023-01-09T03:35:46.279Z,98681.72
2023-01-09T03:38:13.009Z,98690.34
2023-01-09T03:40:40.282Z,98686.47
2023-01-09T03:43:07.024Z,98689.72
2023-01-09T03:45:33.911Z,98697.53
2023-01-09T03:48:00.765Z,98692.09
2023-01-09T03:50:27.560Z,98698.09
2023-01-09T03:52:54.358Z,98700.44
2023-01-09T03:55:21.220Z,98696.31
2023-01-09T03:57:48.069Z,98701.44
2023-01-09T04:00:15.039Z,98703.97
2023-01-09T04:02:41.905Z,98704.72
2023-01-09T04:05:09.118Z,98706.00
2023-01-09T04:07:35.873Z,98704.03
2023-01-09T04:10:03.344Z,98704.22
2023-01-09T04:12:30.007Z,98700.16
2023-01-09T04:14:56.661Z,98702.94
2023-01-09T04:17:23.356Z,98703.03
2023-01-09T04:19:51.805Z,98699.50
2023-01-09T04:22:18.642Z,98703.84
2023-01-09T04:24:45.454Z,98697.94
2023-01-09T04:27:13.035Z,98699.16
2023-01-09T04:29:39.851Z,98694.56
2023-01-09T04:32:07.281Z,98703.66
2023-01-09T04:34:34.137Z,98703.13
2023-01-09T04:37:19.622Z,98693.59
2023-01-09T04:39:46.214Z,98698.38
2023-01-09T04:42:13.180Z,98698.75
2023-01-09T04:44:40.047Z,98706.63
2023-01-09T04:47:06.957Z,98700.63
2023-01-09T04:49:33.908Z,98701.44
2023-01-09T04:52:00.740Z,98703.84
2023-01-09T04:54:27.878Z,98697.44
2023-01-09T04:56:54.818Z,98685.59
2023-01-09T04:59:21.503Z,98700.22
2023-01-09T05:01:48.370Z,98703.75
2023-01-09T05:04:15.312Z,98705.28
2023-01-09T05:06:41.969Z,98700.50
2023-01-09T05:09:08.712Z,98701.06
2023-01-09T05:11:35.410Z,98689.59
2023-01-09T05:14:02.027Z,98698.34
2023-01-09T05:16:28.871Z,98706.13
2023-01-09T05:18:57.160Z,98705.81
2023-01-09T05:21:24.611Z,98700.59
2023-01-09T05:23:51.442Z,98692.34
2023-01-09T05:26:23.999Z,98704.13
2023-01-09T05:28:56.198Z,98698.47
2023-01-09T05:31:24.497Z,98704.88
2023-01-09T05:33:51.205Z,98712.56
2023-01-09T05:36:17.919Z,98714.94
2023-01-09T05:38:44.811Z,98716.38
2023-01-09T05:41:11.832Z,98722.47
2023-01-09T05:43:38.733Z,98724.41
2023-01-09T05:46:05.682Z,98719.50
2023-01-09T05:48:32.626Z,98719.03
2023-01-09T05:50:59.395Z,98717.19
2023-01-09T05:53:26.240Z,98726.88
2023-01-09T05:55:53.077Z,98731.41
2023-01-09T05:58:20.031Z,98727.94
2023-01-09T06:00:46.699Z,98725.91
2023-01-09T06:03:13.410Z,98726.00
2023-01-09T06:05:40.058Z,98725.53
2023-01-09T06:08:06.748Z,98722.38
2023-01-09T06:10:33.358Z,98723.94
2023-01-09T06:13:00.103Z,98721.94
2023-01-09T06:15:26.903Z,98721.81
2023-01-09T06:17:53.870Z,98724.50
2023-01-09T06:20:20.705Z,98721.72
2023-01-09T06:22:47.354Z,98721.09
2023-01-09T06:25:14.133Z,98719.38
2023-01-09T06:27:40.779Z,98730.44
2023-01-09T06:30:08.110Z,98726.56
2023-01-09T06:32:34.865Z,98736.47
2023-01-09T06:35:01.568Z,98738.38
2023-01-09T06:37:28.288Z,98733.56
2023-01-09T06:39:54.951Z,98739.50
2023-01-09T06:42:22.120Z,98745.19
2023-01-09T06:44:49.170Z,98746.94
2023-01-09T06:47:16.079Z,98741.41
2023-01-09T06:49:42.973Z,98740.72
2023-01-09T06:52:09.781Z,98735.91
2023-01-09T06:54:36.654Z,98738.34
2023-01-09T06:57:03.660Z,98738.81
2023-01-09T06:59:30.392Z,98749.88
2023-01-09T07:01:57.549Z,98747.44
2023-01-09T07:04:24.489Z,98753.66
2023-01-09T07:06:51.137Z,98754.47
2023-01-09T07:09:17.926Z,98758.78
2023-01-09T07:11:45.117Z,98760.38
2023-01-09T07:14:11.872Z,98765.81
2023-01-09T07:16:38.740Z,98772.13
2023-01-09T07:19:06.144Z,98766.88
2023-01-09T07:21:33.137Z,98775.38
2023-01-09T07:24:00.162Z,98775.88
2023-01-09T07:26:26.925Z,98782.47
2023-01-09T07:28:54.623Z,98789.63
2023-01-09T07:31:21.422Z,98789.63
2023-01-09T07:33:48.137Z,98787.22
2023-01-09T07:36:15.021Z,98794.31
2023-01-09T07:38:41.666Z,98803.81
2023-01-09T07:41:08.334Z,98802.22
2023-01-09T07:43:35.965Z,98798.03
2023-01-09T07:46:02.576Z,98806.41
2023-01-09T07:48:29.215Z,98812.31
2023-01-09T07:50:55.855Z,98810.91
2023-01-09T07:53:22.884Z,98814.75
2023-01-09T07:55:49.669Z,98822.34
2023-01-09T07:58:16.522Z,98819.91
2023-01-09T08:00:43.372Z,98816.88
2023-01-09T08:03:10.028Z,98813.50
2023-01-09T08:05:36.766Z,98819.69
2023-01-09T08:08:03.612Z,98824.53
2023-01-09T08:10:30.368Z,98828.66
2023-01-09T08:12:57.014Z,98835.50
2023-01-09T08:15:23.617Z,98832.88
2023-01-09T08:17:50.306Z,98835.22
2023-01-09T08:20:17.687Z,98841.75
2023-01-09T08:22:50.478Z,98848.16
2023-01-09T08:25:18.218Z,98850.63
2023-01-09T08:27:45.715Z,98858.69
2023-01-09T08:30:12.833Z,98862.69
2023-01-09T08:32:39.764Z,98859.56
2023-01-09T08:35:07.097Z,98860.44
2023-01-09T08:37:33.829Z,98869.19
2023-01-09T08:40:00.518Z,98869.19
2023-01-09T08:42:45.939Z,98874.00
2023-01-09T08:45:31.313Z,98880.38
2023-01-09T08:47:58.341Z,98884.78
2023-01-09T08:50:25.222Z,98889.59
2023-01-09T08:52:52.074Z,98894.00
2023-01-09T08:55:18.997Z,98897.94
2023-01-09T08:57:50.466Z,98910.34
2023-01-09T09:00:22.374Z,98903.63
2023-01-09T09:02:57.312Z,98916.47
2023-01-09T09:05:26.039Z,98898.91
2023-01-09T09:07:56.237Z,98906.50
2023-01-09T09:10:24.727Z,98908.13
2023-01-09T09:12:54.378Z,98909.75
2023-01-09T09:15:25.101Z,98907.78
2023-01-09T09:17:55.999Z,98909.41
2023-01-09T09:20:24.712Z,98915.38
2023-01-09T09:22:51.933Z,98919.81
2023-01-09T09:25:19.638Z,98928.97
2023-01-09T09:27:47.054Z,98933.38
2023-01-09T09:30:15.915Z,98932.50
2023-01-09T09:32:43.145Z,98945.25
2023-01-09T09:35:10.201Z,98948.88
2023-01-09T09:37:37.676Z,98949.31
2023-01-09T09:40:17.971Z,98960.44
2023-01-09T09:43:54.641Z,98965.25
2023-01-09T09:46:40.812Z,98973.97
2023-01-09T09:49:19.222Z,98979.94
2023-01-09T09:52:25.413Z,98985.16
2023-01-09T09:54:52.682Z,98997.50
2023-01-09T09:57:26.138Z,98997.91
2023-01-09T09:59:54.037Z,99009.03
2023-01-09T10:02:31.062Z,99005.03
2023-01-09T10:05:07.921Z,99029.63
2023-01-09T10:07:42.763Z,99023.66
2023-01-09T10:10:30.166Z,99031.19
2023-01-09T10:12:59.805Z,99039.94
2023-01-09T10:15:40.205Z,99043.94
2023-01-09T10:18:30.860Z,99042.34
2023-01-09T10:21:22.482Z,99051.91
2023-01-09T10:24:10.518Z,99047.97
2023-01-09T10:26:48.400Z,99051.16
2023-01-09T10:29:23.758Z,99042.03
2023-01-09T10:32:21.243Z,99043.19
2023-01-09T10:35:06.216Z,99042.81
2023-01-09T10:37:46.676Z,99047.59
2023-01-09T10:40:30.184Z,99043.63
2023-01-09T10:43:05.011Z,99045.28
2023-01-09T10:45:40.291Z,99050.06
2023-01-09T10:48:20.869Z,99050.81
2023-01-09T10:50:51.849Z,99060.84
2023-01-09T10:53:23.640Z,99066.41
2023-01-09T10:55:55.774Z,99069.75
2023-01-09T10:58:23.329Z,99067.50
2023-01-09T11:00:51.164Z,99065.88
2023-01-09T11:03:23.377Z,99059.53
2023-01-09T11:05:58.290Z,99068.44
2023-01-09T11:08:40.264Z,99071.63
2023-01-09T11:11:07.064Z,99074.81
2023-01-09T11:13:36.516Z,99084.00
2023-01-09T11:16:04.939Z,99066.53
2023-01-09T11:18:33.116Z,99076.09
2023-01-09T11:21:29.555Z,99078.47
2023-01-09T11:23:57.499Z,99082.44
2023-01-09T11:26:26.965Z,99078.06
2023-01-09T11:29:14.632Z,99091.53
2023-01-09T11:31:43.273Z,99086.03
2023-01-09T11:34:21.958Z,99099.59
2023-01-09T11:36:49.515Z,99105.81
2023-01-09T11:39:26.283Z,99113.38
2023-01-09T11:41:55.592Z,99107.69
2023-01-09T11:44:22.523Z,99110.38
2023-01-09T11:46:49.413Z,99116.72
2023-01-09T11:49:19.829Z,99107.88
2023-01-09T11:51:46.859Z,99108.97
2023-01-09T11:54:25.356Z,99107.78
2023-01-09T11:56:52.338Z,99107.78
2023-01-09T11:59:26.669Z,99110.19
2023-01-09T12:02:32.018Z,99107.03
2023-01-09T12:05:37.903Z,99119.84
2023-01-09T12:08:10.568Z,99116.78
2023-01-09T12:11:15.018Z,99113.63
2023-01-09T12:13:58.559Z,99127.28
2023-01-09T12:16:31.007Z,99126.06
2023-01-09T12:19:15.724Z,99130.47
2023-01-09T12:22:07.401Z,99129.31
2023-01-09T12:24:39.883Z,99138.28
2023-01-09T12:27:18.438Z,99134.25
2023-01-09T12:30:22.501Z,99138.31
2023-01-09T12:33:03.642Z,99127.94
2023-01-09T12:35:33.087Z,99131.13
2023-01-09T12:38:53.574Z,99141.88
2023-01-09T12:41:37.443Z,99139.84
2023-01-09T12:44:36.072Z,99142.69
2023-01-09T12:47:32.060Z,99137.06
2023-01-09T12:50:10.932Z,99145.00
2023-01-09T12:53:00.510Z,99153.34
2023-01-09T12:55:32.671Z,99152.94
2023-01-09T12:58:06.722Z,99152.19
2023-01-09T13:00:41.018Z,99155.72
2023-01-09T13:09:06.783Z,99169.97
2023-01-09T13:11:47.086Z,99167.59
2023-01-09T13:14:22.914Z,99179.56
2023-01-09T13:16:53.327Z,99182.34
2023-01-09T13:19:35.318Z,99184.31
2023-01-09T13:22:05.523Z,99199.56
2023-01-09T13:33:23.814Z,99202.44
2023-01-09T13:35:56.250Z,99214.69
2023-01-09T13:41:35.308Z,99214.34
2023-01-09T13:44:20.179Z,99221.13
2023-01-09T13:46:52.417Z,99227.16
2023-01-09T13:49:34.793Z,99233.09
2023-01-09T13:52:26.010Z,99233.09
2023-01-09T13:54:55.791Z,99238.69
2023-01-09T13:57:29.971Z,99238.69
2023-01-09T14:00:19.315Z,99257.03
2023-01-09T14:02:46.772Z,99254.19
2023-01-09T14:05:15.778Z,99256.16
2023-01-09T14:07:49.277Z,99260.94
2023-01-09T14:10:27.411Z,99262.47
2023-01-09T14:12:56.867Z,99272.88
2023-01-09T14:15:37.791Z,99274.09
2023-01-09T14:18:08.005Z,99274.44
2023-01-09T14:20:38.998Z,99282.38
2023-01-09T14:23:31.504Z,99291.09
2023-01-09T14:25:58.027Z,99292.72
2023-01-09T14:28:27.450Z,99306.66
2023-01-09T14:30:54.123Z,99305.50
2023-01-09T14:33:21.538Z,99312.53
2023-01-09T14:35:54.235Z,99320.47
2023-01-09T14:38:32.269Z,99322.06
2023-01-09T14:41:03.811Z,99323.25
2023-01-09T14:43:44.210Z,99329.25
2023-01-09T14:46:19.048Z,99340.78
2023-01-09T14:49:05.607Z,99347.16
2023-01-09T14:51:37.267Z,99354.00
2023-01-09T14:54:15.292Z,99363.16
2023-01-09T14:56:47.307Z,99365.34
2023-01-09T14:59:15.327Z,99381.09
2023-01-09T15:01:45.681Z,99380.47
2023-01-09T15:04:40.299Z,99389.69
2023-01-09T15:07:07.122Z,99394.50
2023-01-09T15:09:47.747Z,99403.31
2023-01-09T15:12:23.413Z,99408.50
2023-01-09T15:14:52.347Z,99414.16
2023-01-09T15:17:24.341Z,99416.53
2023-01-09T15:19:51.940Z,99415.16
2023-01-09T15:22:32.767Z,99427.19
2023-01-09T15:25:12.427Z,99441.50
2023-01-09T15:27:49.164Z,99436.78
2023-01-09T15:30:22.778Z,99427.22
2023-01-09T15:32:52.488Z,99447.22
2023-01-09T15:35:20.202Z,99443.22
2023-01-09T15:37:47.203Z,99447.22
2023-01-09T15:40:22.904Z,99449.59
2023-01-09T15:42:58.078Z,99456.41
2023-01-09T15:45:43.378Z,99462.44
2023-01-09T15:48:27.090Z,99460.50
2023-01-09T15:51:06.735Z,99456.09
2023-01-09T15:53:34.243Z,99466.91
2023-01-09T15:56:12.510Z,99469.00
2023-01-09T15:58:47.302Z,99469.00
2023-01-09T16:01:37.571Z,99466.41
2023-01-09T16:04:10.123Z,99472.72
2023-01-09T16:06:51.556Z,99471.13
2023-01-09T16:09:23.750Z,99483.09
2023-01-09T16:11:53.790Z,99497.41
2023-01-09T16:14:24.325Z,99494.91
2023-01-09T16:16:52.547Z,99503.75
2023-01-09T16:19:30.943Z,99499.75
2023-01-09T16:22:00.004Z,99505.66
2023-01-09T16:24:41.327Z,99512.84
2023-01-09T16:27:17.133Z,99502.88
2023-01-09T16:29:47.473Z,99518.44
2023-01-09T16:32:22.561Z,99521.22
2023-01-09T16:35:06.067Z,99529.13
2023-01-09T16:37:33.883Z,99533.97
2023-01-09T16:40:21.004Z,99529.13
2023-01-09T16:43:08.466Z,99534.69
2023-01-09T16:45:40.918Z,99537.47
2023-01-09T16:48:13.740Z,99540.19
2023-01-09T16:50:41.054Z,99539.44
2023-01-09T16:53:24.099Z,99535.41
2023-01-09T16:56:14.833Z,99546.50
2023-01-09T16:58:41.618Z,99542.66
2023-01-09T17:01:10.435Z,99543.56
2023-01-09T17:03:37.074Z,99555.53
2023-01-09T17:06:04.869Z,99557.16
2023-01-09T17:08:37.446Z,99567.59
2023-01-09T17:11:05.110Z,99571.63
2023-01-09T17:13:32.062Z,99584.31
2023-01-09T17:15:59.789Z,99593.13
2023-01-09T17:18:29.657Z,99598.34
2023-01-09T17:20:58.875Z,99603.53
2023-01-09T17:23:28.763Z,99607.56
2023-01-09T17:26:17.481Z,99618.69
2023-01-09T17:28:48.798Z,99617.06
2023-01-09T17:31:15.709Z,99617.50
2023-01-09T17:33:42.591Z,99625.94
2023-01-09T17:36:32.256Z,99629.88
2023-01-09T17:38:59.441Z,99633.06
2023-01-09T17:41:29.032Z,99639.50
2023-01-09T17:43:56.651Z,99653.94
2023-01-09T17:46:28.839Z,99660.81
2023-01-09T17:48:56.153Z,99665.19
2023-01-09T17:51:23.536Z,99674.75
2023-01-09T17:53:50.656Z,99680.75
2023-01-09T17:56:22.249Z,99683.13
2023-01-09T17:58:49.183Z,99687.50
2023-01-09T18:01:17.771Z,99696.34
2023-01-09T18:03:48.422Z,99699.41
2023-01-09T18:06:17.026Z,99693.63
2023-01-09T18:08:43.957Z,99705.59
2023-01-09T18:11:19.912Z,99707.50
2023-01-09T18:13:48.284Z,99703.13
2023-01-09T18:16:18.231Z,99713.09
2023-01-09T18:18:45.247Z,99733.34
2023-01-09T18:21:16.571Z,99726.91
2023-01-09T18:23:43.470Z,99728.06
2023-01-09T18:26:11.622Z,99741.13
2023-01-09T18:28:39.274Z,99742.31
2023-01-09T18:31:06.497Z,99745.03
2023-01-09T18:33:33.284Z,99765.66
2023-01-09T18:36:08.820Z,99767.56
2023-01-09T18:38:36.224Z,99782.22
2023-01-09T18:41:04.172Z,99779.72
2023-01-09T18:43:31.429Z,99788.91
2023-01-09T18:45:58.131Z,99796.16
2023-01-09T18:48:25.028Z,99804.91
2023-01-09T18:50:51.647Z,99814.06
2023-01-09T18:53:18.321Z,99815.69
2023-01-09T18:55:44.947Z,99817.31
2023-01-09T18:58:11.572Z,99821.28
2023-01-09T19:00:38.402Z,99825.50
2023-01-09T19:03:05.156Z,99825.88
2023-01-09T19:05:33.008Z,99837.84
2023-01-09T19:07:59.825Z,99833.88
2023-01-09T19:10:26.483Z,99835.94
2023-01-09T19:12:53.462Z,99843.88
2023-01-09T19:15:22.658Z,99851.03
2023-01-09T19:17:51.654Z,99860.16
2023-01-09T19:20:19.282Z,99869.78
2023-01-09T19:22:46.024Z,99888.03
2023-01-09T19:25:12.824Z,99902.44
2023-01-09T19:27:39.517Z,99895.22
2023-01-09T19:30:07.049Z,99898.00
2023-01-09T19:32:33.779Z,99895.22
2023-01-09T19:35:00.537Z,99914.31
2023-01-09T19:37:27.184Z,99916.66
2023-01-09T19:39:53.858Z,99921.50
2023-01-09T19:42:20.686Z,99929.13
2023-01-09T19:44:47.542Z,99933.44
2023-01-09T19:47:14.696Z,99943.06
2023-01-09T19:49:53.311Z,99944.59
2023-01-09T19:52:20.035Z,99952.63
2023-01-09T19:54:47.692Z,99953.44
2023-01-09T19:57:14.335Z,99968.16
2023-01-09T19:59:43.279Z,99971.69
2023-01-09T20:02:12.130Z,99990.94
2023-01-09T20:04:38.991Z,99988.44
2023-01-09T20:07:06.050Z,99997.97
2023-01-09T20:09:32.982Z,100004.34
2023-01-09T20:12:01.523Z,100011.91
2023-01-09T20:14:28.267Z,100016.31
2023-01-09T20:16:59.826Z,100019.91
2023-01-09T20:19:27.515Z,100023.50
2023-01-09T20:21:54.293Z,100035.38
2023-01-09T20:24:20.841Z,100045.38
2023-01-09T20:26:47.551Z,100046.91
2023-01-09T20:29:14.350Z,100049.69
2023-01-09T20:31:40.995Z,100054.56
2023-01-09T20:34:07.814Z,100060.47
2023-01-09T20:36:34.950Z,100068.84
2023-01-09T20:39:04.553Z,100059.31
2023-01-09T20:41:34.481Z,100066.84
2023-01-09T20:44:04.978Z,100071.88
2023-01-09T20:46:36.712Z,100071.88
2023-01-09T20:49:06.579Z,100085.56
2023-01-09T20:51:40.344Z,100090.69
2023-01-09T20:54:07.614Z,100098.25
2023-01-09T20:56:34.274Z,100092.66
2023-01-09T20:59:03.283Z,100089.53
2023-01-09T21:01:30.100Z,100090.25
2023-01-09T21:03:57.506Z,100090.31
2023-01-09T21:06:25.646Z,100090.31
2023-01-09T21:08:53.099Z,100093.50
2023-01-09T21:11:21.616Z,100101.47
2023-01-09T21:13:48.812Z,100107.06
2023-01-09T21:16:19.900Z,100113.44
2023-01-09T21:18:47.807Z,100115.09
2023-01-09T21:21:17.063Z,100114.38
2023-01-09T21:23:47.659Z,100124.81
2023-01-09T21:26:15.597Z,100121.31
2023-01-09T21:28:49.240Z,100133.19
2023-01-09T21:31:19.389Z,100142.09
2023-01-09T21:33:47.531Z,100144.19
2023-01-09T21:36:14.778Z,100147.25
2023-01-09T21:38:41.604Z,100157.19
2023-01-09T21:41:27.625Z,100155.22
2023-01-09T21:44:12.658Z,100159.19
2023-01-09T21:46:57.769Z,100163.03
2023-01-09T21:49:26.618Z,100164.69
2023-01-09T21:51:54.278Z,100170.59
2023-01-09T21:54:23.199Z,100164.56
2023-01-09T21:56:51.219Z,100177.69
2023-01-09T21:59:18.561Z,100182.91
2023-01-09T22:01:46.200Z,100184.66
2023-01-09T22:04:14.963Z,100193.84
2023-01-09T22:06:41.865Z,100204.63
2023-01-09T22:09:10.939Z,100208.50
2023-01-09T22:11:39.196Z,100210.09
2023-01-09T22:14:06.120Z,100217.31
2023-01-09T22:16:33.063Z,100228.25
2023-01-09T22:18:59.911Z,100239.41
2023-01-09T22:21:26.620Z,100227.53
2023-01-09T22:23:53.598Z,100234.56
2023-01-09T22:26:21.015Z,100243.13
2023-01-09T22:28:48.719Z,100246.41
2023-01-09T22:31:21.650Z,100251.06
2023-01-09T22:33:52.700Z,100262.47
2023-01-09T22:36:20.149Z,100264.53
2023-01-09T22:38:47.114Z,100257.09
2023-01-09T22:41:14.104Z,100266.38
2023-01-09T22:43:41.063Z,100273.59
2023-01-09T22:46:11.354Z,100275.94
2023-01-09T22:48:38.608Z,100286.25
2023-01-09T22:51:08.030Z,100297.28
2023-01-09T22:53:35.249Z,100303.81
2023-01-09T22:56:05.183Z,100305.31
2023-01-09T22:58:55.780Z,100317.38
2023-01-09T23:01:22.872Z,100324.22
2023-01-09T23:03:49.789Z,100327.00
2023-01-09T23:06:19.347Z,100339.06
2023-01-09T23:08:46.511Z,100341.38
2023-01-09T23:11:38.133Z,100339.72
2023-01-09T23:14:04.780Z,100359.19
2023-01-09T23:16:31.476Z,100358.06
2023-01-09T23:18:58.086Z,100362.66
2023-01-09T23:21:24.836Z,100375.88
2023-01-09T23:23:51.662Z,100377.72
2023-01-09T23:26:18.501Z,100391.00
2023-01-09T23:28:45.088Z,100403.28
2023-01-09T23:31:11.781Z,100405.00
2023-01-09T23:33:38.380Z,100410.44
2023-01-09T23:36:05.290Z,100419.44
2023-01-09T23:38:31.906Z,100423.72
2023-01-09T23:40:58.536Z,100416.28
2023-01-09T23:43:25.423Z,100416.59
2023-01-09T23:45:55.124Z,100418.09
2023-01-09T23:48:21.852Z,100426.97
2023-01-09T23:50:50.567Z,100431.25
2023-01-09T23:53:18.813Z,100430.97
2023-01-09T23:55:45.621Z,100425.41
2023-01-09T23:58:12.339Z,100434.91
